68koryomaru — JFFD — position and weather

sailwx.info

Track history (hours):
 
Tides and Currents Weather Stations Pressure Air Temp Water Temp Dewpoint Dewpoint Depression Visibility Wind Speed Wind Dir Waves Ship Positions

68koryomaru

Last reported at 2018-May-25 14:23 UTC. Time now 2018-Jun-24 06:46 UTC.
Position N 28°08' W 015°25'.
Warning: this ship's position is 29 days out of date.

Length 52 m; draft 4.5 m.

Type: Fishing. MMSI: 431316000.

Date/timePositionNaut miles runAvg speedWind from/ knotsBaromVisibWave heightAir tempDewpointWater temp
2018-May-25 14:23N 28°08' W 015°25'0 0.0
2018-May-25 14:00N 28°08' W 015°25'0 0.0
2018-May-25 13:30N 28°08' W 015°25'0 0.0
2018-May-25 13:00N 28°08' W 015°25'0 0.0
2018-May-25 12:29N 28°08' W 015°25'0 0.0
2018-May-25 12:00N 28°08' W 015°25'0 0.0
2018-May-25 11:30N 28°08' W 015°25'0 0.0
2018-May-25 11:01N 28°08' W 015°25'0 0.0
2018-May-25 10:31N 28°08' W 015°25'0 0.0
2018-May-25 10:00N 28°08' W 015°25'0 0.0
2018-May-25 09:31N 28°08' W 015°25'0 0.0
2018-May-25 09:01N 28°08' W 015°25'0 0.0
2018-May-25 08:31N 28°08' W 015°25'0 0.0
2018-May-25 08:00N 28°08' W 015°25'2 3.4
2018-May-25 07:29N 28°07' W 015°23'5 9.6
2018-May-25 07:01N 28°10' W 015°19'4 7.8
2018-May-25 06:31N 28°08' W 015°15'2 3.1
2018-May-25 06:01N 28°08' W 015°13'4 7.9
2018-May-25 05:31N 28°11' W 015°10'5 9.8
2018-May-25 05:01N 28°16' W 015°11'0 1.0
2018-May-25 04:30N 28°16' W 015°11'1 1.1
2018-May-25 04:00N 28°17' W 015°11'1 1.1
2018-May-25 03:30N 28°17' W 015°11'1 1.1
2018-May-25 02:58N 28°18' W 015°11'0 1.1
2018-May-25 02:30N 28°18' W 015°11'2 4.4
2018-May-25 02:00N 28°17' W 015°13'4 8.4
2018-May-25 01:30N 28°13' W 015°14'4 8.7
2018-May-25 01:00N 28°08' W 015°14'4 8.7
2018-May-25 00:30N 28°04' W 015°14'4 8.6
2018-May-25 00:00N 27°60' W 015°14'4 8.5
2018-May-24 23:30N 27°55' W 015°14'4 8.6
2018-May-24 23:00N 27°51' W 015°14'4 8.8
2018-May-24 22:30N 27°47' W 015°15'  
Track history (hours):
 
Tides and Currents Weather Stations Pressure Air Temp Water Temp Dewpoint Dewpoint Depression Visibility Wind Speed Wind Dir Waves Ship Positions

68koryomaru

Last reported at 2018-May-25 14:23 UTC. Time now 2018-Jun-24 06:46 UTC.
Position N 28°08' W 015°25'.
Warning: this ship's position is 29 days out of date.

Length 52 m; draft 4.5 m.

Type: Fishing. MMSI: 431316000.

Date/timePositionNaut miles runAvg speedWind from/ knotsBaromVisibWave heightAir tempDewpointWater temp
2018-May-25 14:23N 28°08' W 015°25'0 0.0
2018-May-25 14:00N 28°08' W 015°25'0 0.0
2018-May-25 13:30N 28°08' W 015°25'0 0.0
2018-May-25 13:00N 28°08' W 015°25'0 0.0
2018-May-25 12:29N 28°08' W 015°25'0 0.0
2018-May-25 12:00N 28°08' W 015°25'0 0.0
2018-May-25 11:30N 28°08' W 015°25'0 0.0
2018-May-25 11:01N 28°08' W 015°25'0 0.0
2018-May-25 10:31N 28°08' W 015°25'0 0.0
2018-May-25 10:00N 28°08' W 015°25'0 0.0
2018-May-25 09:31N 28°08' W 015°25'0 0.0
2018-May-25 09:01N 28°08' W 015°25'0 0.0
2018-May-25 08:31N 28°08' W 015°25'0 0.0
2018-May-25 08:00N 28°08' W 015°25'2 3.4
2018-May-25 07:29N 28°07' W 015°23'5 9.6
2018-May-25 07:01N 28°10' W 015°19'4 7.8
2018-May-25 06:31N 28°08' W 015°15'2 3.1
2018-May-25 06:01N 28°08' W 015°13'4 7.9
2018-May-25 05:31N 28°11' W 015°10'5 9.8
2018-May-25 05:01N 28°16' W 015°11'0 1.0
2018-May-25 04:30N 28°16' W 015°11'1 1.1
2018-May-25 04:00N 28°17' W 015°11'1 1.1
2018-May-25 03:30N 28°17' W 015°11'1 1.1
2018-May-25 02:58N 28°18' W 015°11'0 1.1
2018-May-25 02:30N 28°18' W 015°11'2 4.4
2018-May-25 02:00N 28°17' W 015°13'4 8.4
2018-May-25 01:30N 28°13' W 015°14'4 8.7
2018-May-25 01:00N 28°08' W 015°14'4 8.7
2018-May-25 00:30N 28°04' W 015°14'4 8.6
2018-May-25 00:00N 27°60' W 015°14'4 8.5
2018-May-24 23:30N 27°55' W 015°14'4 8.6
2018-May-24 23:00N 27°51' W 015°14'4 8.8
2018-May-24 22:30N 27°47' W 015°15'  

Dump ship's entire track history